createdAt,value
2022-12-17T00:01:13.339Z,19.50
2022-12-17T00:04:02.904Z,19.60
2022-12-17T00:06:56.492Z,19.60
2022-12-17T00:09:50.083Z,19.60
2022-12-17T00:12:39.878Z,19.60
2022-12-17T00:15:29.560Z,19.60
2022-12-17T00:18:30.411Z,19.70
2022-12-17T00:21:22.539Z,19.70
2022-12-17T00:24:12.521Z,19.70
2022-12-17T00:27:01.680Z,19.70
2022-12-17T00:29:50.799Z,19.70
2022-12-17T00:32:40.000Z,19.80
2022-12-17T00:35:29.599Z,19.80
2022-12-17T00:38:18.741Z,19.80
2022-12-17T00:41:13.488Z,19.80
2022-12-17T00:44:02.542Z,19.80
2022-12-17T00:46:51.703Z,19.90
2022-12-17T00:49:41.193Z,19.80
2022-12-17T00:52:30.394Z,19.90
2022-12-17T00:55:19.495Z,19.90
2022-12-17T00:58:08.636Z,19.90
2022-12-17T01:00:58.136Z,19.90
2022-12-17T01:03:47.738Z,19.90
2022-12-17T01:06:37.236Z,20.00
2022-12-17T01:09:26.793Z,20.00
2022-12-17T01:12:16.310Z,20.00
2022-12-17T01:15:05.800Z,20.00
2022-12-17T01:17:56.259Z,20.00
2022-12-17T01:20:46.430Z,20.00
2022-12-17T01:23:36.304Z,20.10
2022-12-17T01:26:26.677Z,20.10
2022-12-17T01:29:15.747Z,20.10
2022-12-17T01:32:05.121Z,20.10
2022-12-17T01:34:54.253Z,20.10
2022-12-17T01:37:43.368Z,20.20
2022-12-17T01:40:32.819Z,20.20
2022-12-17T01:43:22.032Z,20.20
2022-12-17T01:46:12.075Z,20.30
2022-12-17T01:49:06.291Z,20.30
2022-12-17T01:51:57.167Z,20.30
2022-12-17T01:54:46.379Z,20.40
2022-12-17T01:57:36.285Z,20.40
2022-12-17T02:00:34.940Z,20.40
2022-12-17T02:03:25.212Z,20.50
2022-12-17T02:06:40.570Z,20.40
2022-12-17T02:10:00.764Z,20.50
2022-12-17T02:13:08.757Z,20.60
2022-12-17T02:16:17.137Z,20.60
2022-12-17T02:19:14.607Z,20.60
2022-12-17T02:22:07.168Z,20.60
2022-12-17T02:25:17.444Z,20.60
2022-12-17T02:28:07.089Z,20.70
2022-12-17T02:30:58.728Z,20.70
2022-12-17T02:33:48.550Z,20.70
2022-12-17T02:36:38.108Z,20.80
2022-12-17T02:39:27.598Z,20.80
2022-12-17T02:42:19.831Z,20.80
2022-12-17T02:45:09.385Z,20.80
2022-12-17T02:48:00.084Z,20.90
2022-12-17T02:50:49.538Z,20.90
2022-12-17T02:53:41.237Z,20.90
2022-12-17T02:56:30.850Z,21.00
2022-12-17T02:59:20.340Z,21.00
2022-12-17T03:02:09.904Z,21.00
2022-12-17T03:05:06.639Z,21.10
2022-12-17T03:08:04.591Z,21.10
2022-12-17T03:10:54.080Z,21.10
2022-12-17T03:13:51.100Z,21.10
2022-12-17T03:16:41.274Z,21.20
2022-12-17T03:19:31.843Z,21.20
2022-12-17T03:22:21.959Z,21.20
2022-12-17T03:25:10.970Z,21.20
2022-12-17T03:28:00.283Z,21.20
2022-12-17T03:30:49.500Z,21.30
2022-12-17T03:33:39.049Z,21.30
2022-12-17T03:36:28.738Z,21.30
2022-12-17T03:39:18.025Z,21.30
2022-12-17T03:42:07.599Z,21.30
2022-12-17T03:44:56.829Z,21.30
2022-12-17T03:47:45.928Z,21.40
2022-12-17T03:50:35.038Z,21.30
2022-12-17T03:53:26.369Z,21.40
2022-12-17T03:56:15.552Z,21.40
2022-12-17T03:59:04.703Z,21.40
2022-12-17T04:01:53.969Z,21.40
2022-12-17T04:04:43.234Z,21.40
2022-12-17T04:07:32.455Z,21.40
2022-12-17T04:10:21.549Z,21.50
2022-12-17T04:13:11.161Z,21.50
2022-12-17T04:16:00.760Z,21.60
2022-12-17T04:18:49.984Z,21.60
2022-12-17T04:21:39.107Z,21.70
2022-12-17T04:24:29.522Z,21.70
2022-12-17T04:27:19.032Z,21.80
2022-12-17T04:30:08.666Z,21.80
2022-12-17T04:32:58.069Z,21.90
2022-12-17T04:35:47.539Z,21.90
2022-12-17T04:38:37.058Z,21.90
2022-12-17T04:41:26.581Z,22.00
2022-12-17T04:44:16.086Z,22.00
2022-12-17T04:47:05.754Z,22.00
2022-12-17T04:49:55.246Z,22.10
2022-12-17T04:52:44.749Z,22.10
2022-12-17T04:55:34.198Z,22.10
2022-12-17T04:58:28.184Z,22.20
2022-12-17T05:01:18.214Z,22.20
2022-12-17T05:04:07.787Z,22.20
2022-12-17T05:06:57.178Z,22.30
2022-12-17T05:09:46.634Z,22.20
2022-12-17T05:12:36.116Z,22.30
2022-12-17T05:15:26.045Z,22.30
2022-12-17T05:18:15.518Z,22.30
2022-12-17T05:21:05.086Z,22.40
2022-12-17T05:23:54.516Z,22.30
2022-12-17T05:26:47.010Z,22.40
2022-12-17T05:29:36.458Z,22.40
2022-12-17T05:32:26.364Z,22.50
2022-12-17T05:35:15.752Z,22.50
2022-12-17T05:38:05.190Z,22.60
2022-12-17T05:40:54.806Z,22.60
2022-12-17T05:43:44.192Z,22.60
2022-12-17T05:46:33.686Z,22.60
2022-12-17T05:49:23.202Z,22.70
2022-12-17T05:52:12.598Z,22.80
2022-12-17T05:55:02.104Z,22.80
2022-12-17T05:57:56.233Z,22.80
2022-12-17T06:00:46.116Z,22.90
2022-12-17T06:03:35.868Z,22.90
2022-12-17T06:06:25.770Z,22.90
2022-12-17T06:09:15.207Z,22.90
2022-12-17T06:12:04.726Z,23.00
2022-12-17T06:14:54.110Z,23.10
2022-12-17T06:17:43.558Z,23.10
2022-12-17T06:20:33.245Z,23.20
2022-12-17T06:23:32.073Z,23.30
2022-12-17T06:26:21.527Z,23.30
2022-12-17T06:29:11.593Z,23.40
2022-12-17T06:32:00.882Z,23.40
2022-12-17T06:34:50.108Z,23.50
2022-12-17T06:37:39.198Z,23.50
2022-12-17T06:40:28.876Z,23.60
2022-12-17T06:43:18.855Z,23.60
2022-12-17T06:46:08.111Z,23.70
2022-12-17T06:48:57.181Z,23.60
2022-12-17T06:51:46.375Z,23.70
2022-12-17T06:54:35.528Z,23.80
2022-12-17T06:57:24.776Z,23.80
2022-12-17T07:00:13.976Z,23.90
2022-12-17T07:03:03.204Z,23.90
2022-12-17T07:05:52.308Z,24.00
2022-12-17T07:08:41.448Z,24.00
2022-12-17T07:11:30.648Z,24.00
2022-12-17T07:14:19.885Z,24.00
2022-12-17T07:17:08.969Z,24.10
2022-12-17T07:19:58.126Z,24.10
2022-12-17T07:22:47.229Z,24.10
2022-12-17T07:25:37.821Z,24.10
2022-12-17T07:28:29.629Z,24.10
2022-12-17T07:31:19.281Z,24.10
2022-12-17T07:34:08.515Z,24.10
2022-12-17T07:36:57.716Z,24.10
2022-12-17T07:39:47.178Z,24.20
2022-12-17T07:42:36.669Z,24.30
2022-12-17T07:45:26.719Z,24.30
2022-12-17T07:48:16.679Z,24.30
2022-12-17T07:51:10.125Z,24.30
2022-12-17T07:53:59.724Z,24.40
2022-12-17T07:56:49.188Z,24.40
2022-12-17T07:59:39.839Z,24.40
2022-12-17T08:02:31.598Z,24.50
2022-12-17T08:05:21.089Z,24.50
2022-12-17T08:08:10.615Z,24.50
2022-12-17T08:11:00.039Z,24.50
2022-12-17T08:13:49.441Z,24.50
2022-12-17T08:16:39.055Z,24.50
2022-12-17T08:19:28.667Z,24.50
2022-12-17T08:22:18.168Z,24.50
2022-12-17T08:25:07.610Z,24.60
2022-12-17T08:27:57.296Z,24.60
2022-12-17T08:30:46.948Z,24.60
2022-12-17T08:33:36.757Z,24.60
2022-12-17T08:36:26.670Z,24.60
2022-12-17T08:39:16.662Z,24.60
2022-12-17T08:42:05.927Z,24.70
2022-12-17T08:44:55.079Z,24.60
2022-12-17T08:47:46.271Z,24.60
2022-12-17T08:50:35.416Z,24.60
2022-12-17T08:53:27.093Z,24.60
2022-12-17T08:56:17.609Z,24.60
2022-12-17T08:59:06.798Z,24.60
2022-12-17T09:01:56.032Z,24.50
2022-12-17T09:04:45.275Z,24.50
2022-12-17T09:07:34.474Z,24.40
2022-12-17T09:10:23.641Z,24.40
2022-12-17T09:13:12.747Z,24.30
2022-12-17T09:16:01.917Z,24.30
2022-12-17T09:18:51.041Z,24.20
2022-12-17T09:21:40.128Z,24.20
2022-12-17T09:24:29.639Z,24.10
2022-12-17T09:27:18.904Z,24.10
2022-12-17T09:30:08.080Z,24.10
2022-12-17T09:32:57.284Z,24.10
2022-12-17T09:35:46.373Z,24.00
2022-12-17T09:38:36.500Z,24.00
2022-12-17T09:41:51.563Z,24.00
2022-12-17T09:45:06.094Z,23.90
2022-12-17T09:48:33.306Z,23.90
2022-12-17T09:51:22.690Z,23.80
2022-12-17T09:54:13.124Z,23.90
2022-12-17T09:57:03.880Z,23.80
2022-12-17T09:59:57.321Z,23.80
2022-12-17T10:02:53.023Z,23.80
2022-12-17T10:05:48.547Z,23.70
2022-12-17T10:08:43.110Z,23.70
2022-12-17T10:11:44.728Z,23.70
2022-12-17T10:14:44.364Z,23.60
2022-12-17T10:17:42.645Z,23.60
2022-12-17T10:20:48.659Z,23.60
2022-12-17T10:23:57.296Z,23.50
2022-12-17T10:26:50.209Z,23.50
2022-12-17T10:29:48.451Z,23.50
2022-12-17T10:32:47.094Z,23.50
2022-12-17T10:35:58.001Z,23.40
2022-12-17T10:38:50.038Z,23.40
2022-12-17T10:41:53.025Z,23.40
2022-12-17T10:44:55.395Z,23.40
2022-12-17T10:47:47.122Z,23.30
2022-12-17T10:50:45.008Z,23.30
2022-12-17T10:53:41.601Z,23.30
2022-12-17T10:56:47.991Z,23.30
2022-12-17T10:59:57.370Z,23.20
2022-12-17T11:02:52.012Z,23.20
2022-12-17T11:05:54.975Z,23.20
2022-12-17T11:08:49.033Z,23.10
2022-12-17T11:11:38.745Z,23.10
2022-12-17T11:14:31.174Z,23.10
2022-12-17T11:17:25.211Z,23.10
2022-12-17T11:20:36.929Z,23.10
2022-12-17T11:23:26.734Z,23.00
2022-12-17T11:26:31.627Z,23.00
2022-12-17T11:29:21.718Z,23.00
2022-12-17T11:32:34.936Z,23.00
2022-12-17T11:35:51.976Z,22.90
2022-12-17T11:38:57.716Z,22.90
2022-12-17T11:42:25.150Z,22.90
2022-12-17T11:45:26.627Z,22.80
2022-12-17T11:48:27.325Z,22.80
2022-12-17T11:51:28.609Z,22.80
2022-12-17T11:54:45.725Z,22.80
2022-12-17T11:58:03.865Z,22.80
2022-12-17T12:01:03.613Z,22.80
2022-12-17T12:04:24.351Z,22.70
2022-12-17T12:07:38.927Z,22.70
2022-12-17T12:10:45.640Z,22.70
2022-12-17T12:13:54.428Z,22.60
2022-12-17T12:16:56.959Z,22.60
2022-12-17T12:20:06.536Z,22.60
2022-12-17T12:23:15.852Z,22.60
2022-12-17T12:26:34.992Z,22.50
2022-12-17T12:29:48.900Z,22.50
2022-12-17T12:32:56.844Z,22.50
2022-12-17T12:35:50.042Z,22.50
2022-12-17T12:38:49.150Z,22.50
2022-12-17T12:42:13.674Z,22.40
2022-12-17T12:45:42.270Z,22.40
2022-12-17T12:49:10.208Z,22.40
2022-12-17T12:52:01.192Z,22.40
2022-12-17T12:55:12.730Z,22.40
2022-12-17T12:58:21.114Z,22.30
2022-12-17T13:01:16.254Z,22.30
2022-12-17T13:04:15.460Z,22.30
2022-12-17T13:06:56.284Z,22.30
2022-12-17T13:09:39.149Z,22.20
2022-12-17T13:12:26.592Z,22.20
2022-12-17T13:15:19.186Z,22.20
2022-12-17T13:18:08.824Z,22.20
2022-12-17T13:20:38.932Z,22.20
2022-12-17T13:23:28.380Z,22.20
2022-12-17T13:26:20.360Z,22.20
2022-12-17T13:29:13.286Z,22.20
2022-12-17T13:32:00.414Z,22.20
2022-12-17T13:35:10.671Z,22.20
2022-12-17T13:38:12.232Z,22.10
2022-12-17T13:41:15.014Z,22.20
2022-12-17T13:43:55.185Z,22.20
2022-12-17T13:46:48.275Z,22.20
2022-12-17T13:49:26.177Z,22.20
2022-12-17T13:52:18.058Z,22.20
2022-12-17T13:54:47.655Z,22.20
2022-12-17T13:57:19.963Z,22.20
2022-12-17T14:00:00.865Z,22.20
2022-12-17T14:02:40.903Z,22.10
2022-12-17T14:05:28.602Z,22.10
2022-12-17T14:08:03.021Z,22.10
2022-12-17T14:10:33.181Z,22.10
2022-12-17T14:13:10.327Z,22.10
2022-12-17T14:15:40.054Z,22.10
2022-12-17T14:18:16.725Z,22.10
2022-12-17T14:20:46.975Z,22.00
2022-12-17T14:23:36.145Z,22.00
2022-12-17T14:26:05.842Z,22.00
2022-12-17T14:28:50.436Z,22.00
2022-12-17T14:31:29.995Z,22.00
2022-12-17T14:34:12.668Z,21.90
2022-12-17T14:36:45.568Z,21.90
2022-12-17T14:39:23.252Z,21.90
2022-12-17T14:42:13.134Z,21.90
2022-12-17T14:44:59.914Z,21.90
2022-12-17T14:47:39.652Z,21.90
2022-12-17T14:50:39.101Z,21.80
2022-12-17T14:53:29.293Z,21.80
2022-12-17T14:56:00.664Z,21.80
2022-12-17T14:58:30.793Z,21.70
2022-12-17T15:01:10.715Z,21.70
2022-12-17T15:03:48.486Z,21.60
2022-12-17T15:06:20.756Z,21.60
2022-12-17T15:08:52.146Z,21.60
2022-12-17T15:11:24.376Z,21.60
2022-12-17T15:13:56.627Z,21.50
2022-12-17T15:16:26.459Z,21.50
2022-12-17T15:18:56.150Z,21.50
2022-12-17T15:21:27.570Z,21.50
2022-12-17T15:23:57.250Z,21.50
2022-12-17T15:26:26.927Z,21.40
2022-12-17T15:28:56.521Z,21.40
2022-12-17T15:31:29.470Z,21.40
2022-12-17T15:34:01.623Z,21.40
2022-12-17T15:36:33.473Z,21.40
2022-12-17T15:39:07.926Z,21.30
2022-12-17T15:41:57.272Z,21.30
2022-12-17T15:44:29.914Z,21.30
2022-12-17T15:47:02.040Z,21.20
2022-12-17T15:49:31.807Z,21.20
2022-12-17T15:52:01.364Z,21.20
2022-12-17T15:54:30.993Z,21.20
2022-12-17T15:57:00.609Z,21.10
2022-12-17T15:59:30.165Z,21.10
2022-12-17T16:01:59.859Z,21.10
2022-12-17T16:04:29.831Z,21.10
2022-12-17T16:06:59.512Z,21.10
2022-12-17T16:09:29.150Z,21.00
2022-12-17T16:11:59.250Z,21.00
2022-12-17T16:14:28.877Z,21.00
2022-12-17T16:16:58.423Z,20.90
2022-12-17T16:19:28.564Z,20.90
2022-12-17T16:21:58.449Z,20.90
2022-12-17T16:24:28.301Z,20.80
2022-12-17T16:27:04.052Z,20.80
2022-12-17T16:29:34.441Z,20.80
2022-12-17T16:32:04.362Z,20.80
2022-12-17T16:34:34.452Z,20.80
2022-12-17T16:37:04.632Z,20.70
2022-12-17T16:39:34.971Z,20.80
2022-12-17T16:42:04.948Z,20.70
2022-12-17T16:44:35.066Z,20.70
2022-12-17T16:47:05.666Z,20.70
2022-12-17T16:49:38.848Z,20.70
2022-12-17T16:52:11.820Z,20.70
2022-12-17T16:54:41.620Z,20.60
2022-12-17T16:57:12.440Z,20.60
2022-12-17T16:59:42.486Z,20.60
2022-12-17T17:02:17.108Z,20.50
2022-12-17T17:04:47.147Z,20.60
2022-12-17T17:07:17.084Z,20.50
2022-12-17T17:09:47.337Z,20.50
2022-12-17T17:12:17.324Z,20.50
2022-12-17T17:14:47.174Z,20.40
2022-12-17T17:17:16.760Z,20.50
2022-12-17T17:19:46.364Z,20.40
2022-12-17T17:22:16.044Z,20.40
2022-12-17T17:24:46.456Z,20.40
2022-12-17T17:27:16.121Z,20.40
2022-12-17T17:29:45.665Z,20.30
2022-12-17T17:32:15.235Z,20.30
2022-12-17T17:34:44.913Z,20.30
2022-12-17T17:37:15.210Z,20.20
2022-12-17T17:39:44.855Z,20.20
2022-12-17T17:42:14.485Z,20.20
2022-12-17T17:44:44.054Z,20.10
2022-12-17T17:47:14.526Z,20.20
2022-12-17T17:49:44.373Z,20.20
2022-12-17T17:52:13.929Z,20.10
2022-12-17T17:54:46.742Z,20.10
2022-12-17T17:57:16.446Z,20.10
2022-12-17T17:59:50.039Z,20.00
2022-12-17T18:02:20.743Z,20.00
2022-12-17T18:04:51.505Z,20.00
2022-12-17T18:07:25.771Z,20.00
2022-12-17T18:09:56.249Z,20.00
2022-12-17T18:12:48.562Z,19.90
2022-12-17T18:15:18.764Z,19.90
2022-12-17T18:17:52.540Z,19.90
2022-12-17T18:20:22.505Z,19.90
2022-12-17T18:22:52.488Z,19.90
2022-12-17T18:25:23.055Z,19.80
2022-12-17T18:27:55.481Z,19.80
2022-12-17T18:30:25.326Z,19.80
2022-12-17T18:32:56.638Z,19.80
2022-12-17T18:35:27.721Z,19.70
2022-12-17T18:37:57.554Z,19.70
2022-12-17T18:40:32.919Z,19.70
2022-12-17T18:43:22.806Z,19.70
2022-12-17T18:45:54.556Z,19.70
2022-12-17T18:48:24.933Z,19.60
2022-12-17T18:50:55.415Z,19.60
2022-12-17T18:53:27.446Z,19.50
2022-12-17T18:55:56.936Z,19.50
2022-12-17T18:58:26.458Z,19.50
2022-12-17T19:00:56.186Z,19.50
2022-12-17T19:03:25.874Z,19.50
2022-12-17T19:05:55.372Z,19.40
2022-12-17T19:08:25.145Z,19.40
2022-12-17T19:10:54.644Z,19.40
2022-12-17T19:13:24.168Z,19.40
2022-12-17T19:15:55.050Z,19.40
2022-12-17T19:18:30.654Z,19.40
2022-12-17T19:21:01.321Z,19.40
2022-12-17T19:23:34.376Z,19.30
2022-12-17T19:26:21.915Z,19.30
2022-12-17T19:28:53.768Z,19.30
2022-12-17T19:31:25.958Z,19.30
2022-12-17T19:34:00.555Z,19.30
2022-12-17T19:36:32.321Z,19.20
2022-12-17T19:39:05.818Z,19.20
2022-12-17T19:41:36.450Z,19.20
2022-12-17T19:44:08.886Z,19.20
2022-12-17T19:46:39.130Z,19.20
2022-12-17T19:49:10.052Z,19.30
2022-12-17T19:51:45.593Z,19.20
2022-12-17T19:54:19.351Z,19.20
2022-12-17T19:56:49.063Z,19.20
2022-12-17T19:59:18.653Z,19.20
2022-12-17T20:01:50.803Z,19.10
2022-12-17T20:04:20.489Z,19.10
2022-12-17T20:06:50.383Z,19.20
2022-12-17T20:09:19.996Z,19.10
2022-12-17T20:11:49.580Z,19.10
2022-12-17T20:14:22.977Z,19.10
2022-12-17T20:16:57.955Z,19.10
2022-12-17T20:19:33.906Z,19.10
2022-12-17T20:22:06.148Z,19.10
2022-12-17T20:24:38.862Z,19.00
2022-12-17T20:27:09.132Z,19.00
2022-12-17T20:29:39.094Z,19.00
2022-12-17T20:32:09.556Z,18.90
2022-12-17T20:34:39.425Z,18.90
2022-12-17T20:37:09.297Z,18.90
2022-12-17T20:39:39.289Z,18.90
2022-12-17T20:42:10.538Z,18.80
2022-12-17T20:44:41.195Z,18.80
2022-12-17T20:47:11.092Z,18.80
2022-12-17T20:49:40.954Z,18.80
2022-12-17T20:52:10.844Z,18.80
2022-12-17T20:54:41.414Z,18.70
2022-12-17T20:57:10.924Z,18.70
2022-12-17T20:59:40.470Z,18.70
2022-12-17T21:02:11.515Z,18.60
2022-12-17T21:04:41.397Z,18.60
2022-12-17T21:07:11.345Z,18.60
2022-12-17T21:09:41.248Z,18.50
2022-12-17T21:12:11.470Z,18.50
2022-12-17T21:14:41.290Z,18.50
2022-12-17T21:17:11.180Z,18.50
2022-12-17T21:19:41.109Z,18.40
2022-12-17T21:22:11.033Z,18.40
2022-12-17T21:24:41.248Z,18.40
2022-12-17T21:27:14.972Z,18.30
2022-12-17T21:29:45.174Z,18.30
2022-12-17T21:32:15.061Z,18.30
2022-12-17T21:34:45.006Z,18.20
2022-12-17T21:37:15.521Z,18.20
2022-12-17T21:39:45.537Z,18.10
2022-12-17T21:42:34.994Z,18.10
2022-12-17T21:45:04.863Z,18.10
2022-12-17T21:47:34.860Z,18.00
2022-12-17T21:50:05.545Z,18.00
2022-12-17T21:52:35.326Z,18.00
2022-12-17T21:55:05.018Z,17.90
2022-12-17T21:57:34.696Z,17.90
2022-12-17T22:00:04.293Z,17.90
2022-12-17T22:02:34.049Z,17.90
2022-12-17T22:05:04.816Z,17.80
2022-12-17T22:07:40.978Z,17.80
2022-12-17T22:10:36.545Z,17.80
2022-12-17T22:13:25.246Z,17.80
2022-12-17T22:15:56.377Z,17.70
2022-12-17T22:18:26.017Z,17.70
2022-12-17T22:21:03.454Z,17.60
2022-12-17T22:23:33.402Z,17.60
2022-12-17T22:26:03.694Z,17.50
2022-12-17T22:28:33.500Z,17.50
2022-12-17T22:31:27.071Z,17.50
2022-12-17T22:34:41.179Z,17.40
2022-12-17T22:39:23.711Z,17.30
2022-12-17T22:44:38.221Z,17.20
2022-12-17T22:44:39.040Z,17.30
2022-12-17T22:45:39.797Z,17.20
2022-12-17T22:48:12.365Z,17.10
2022-12-17T22:51:00.158Z,17.10
2022-12-17T22:53:33.096Z,17.00
2022-12-17T22:56:18.549Z,17.00
2022-12-17T22:58:59.861Z,16.90
2022-12-17T23:01:29.608Z,16.90
2022-12-17T23:04:01.189Z,16.90
2022-12-17T23:06:30.803Z,16.80
2022-12-17T23:09:00.782Z,16.80
2022-12-17T23:11:32.987Z,16.80
2022-12-17T23:14:02.552Z,16.70
2022-12-17T23:16:32.268Z,16.70
2022-12-17T23:19:03.676Z,16.60
2022-12-17T23:21:33.214Z,16.60
2022-12-17T23:24:02.926Z,16.60
2022-12-17T23:26:35.287Z,16.50
2022-12-17T23:29:07.889Z,16.50
2022-12-17T23:31:40.135Z,16.50
2022-12-17T23:34:10.847Z,16.40
2022-12-17T23:36:40.504Z,16.30
2022-12-17T23:39:10.204Z,16.30
2022-12-17T23:41:39.812Z,16.30
2022-12-17T23:44:09.459Z,16.30
2022-12-17T23:46:39.008Z,16.30
2022-12-17T23:49:08.802Z,16.20
2022-12-17T23:51:39.007Z,16.20
2022-12-17T23:54:08.863Z,16.20
2022-12-17T23:56:38.642Z,16.20
2022-12-17T23:59:08.284Z,16.20
